AAL3521 KDFW-KLAS
Flight info
| Callsign | AAL3521 |
|---|---|
| Flight time | 1h 30m |
| Altitude | 28000 |
| Route | HRPER3 HULZE TXO J72 GUP HAHAA RKSTR4 |
| Aircraft | A321/M-SDE3FGHIRWY/LB1 |
Departure
| Time | 2026-05-04 23:29 |
|---|---|
| Airport | Dallas Fort Worth International Airport (KDFW) |
Arrival
| Time | 2026-05-05 01:00 |
|---|---|
| Airport | Harry Reid International Airport (KLAS) |
| Time | Latitude | Longitude | Altitude | Speed | Heading |
|---|---|---|---|---|---|
| 2026-05-04 22:56 | 32.90232 | -97.04461 | 599 ft | 0 kts | 40° |
| 2026-05-04 23:18 | 32.90217 | -97.04473 | 598 ft | 2 kts | 36° |
| 2026-05-04 23:18 | 32.90196 | -97.04486 | 598 ft | 4 kts | 355° |
| 2026-05-04 23:18 | 32.90173 | -97.04474 | 598 ft | 3 kts | 316° |
| 2026-05-04 23:19 | 32.90170 | -97.04471 | 598 ft | 0 kts | 315° |
| 2026-05-04 23:22 | 32.90173 | -97.04474 | 598 ft | 2 kts | 315° |
| 2026-05-04 23:22 | 32.90191 | -97.04495 | 598 ft | 5 kts | 315° |
| 2026-05-04 23:22 | 32.90220 | -97.04531 | 598 ft | 6 kts | 313° |
| 2026-05-04 23:22 | 32.90251 | -97.04569 | 598 ft | 7 kts | 315° |
| 2026-05-04 23:23 | 32.90291 | -97.04598 | 598 ft | 7 kts | 336° |
| 2026-05-04 23:23 | 32.90329 | -97.04627 | 598 ft | 6 kts | 300° |
| 2026-05-04 23:23 | 32.90336 | -97.04684 | 598 ft | 8 kts | 272° |
| 2026-05-04 23:23 | 32.90346 | -97.04754 | 598 ft | 8 kts | 324° |
| 2026-05-04 23:24 | 32.90415 | -97.04763 | 598 ft | 12 kts | 359° |
| 2026-05-04 23:24 | 32.90510 | -97.04763 | 598 ft | 15 kts | 1° |
| 2026-05-04 23:24 | 32.90615 | -97.04762 | 598 ft | 15 kts | 0° |
| 2026-05-04 23:24 | 32.90717 | -97.04761 | 598 ft | 14 kts | 0° |
| 2026-05-04 23:25 | 32.90819 | -97.04760 | 598 ft | 15 kts | 0° |
| 2026-05-04 23:25 | 32.90925 | -97.04760 | 598 ft | 16 kts | 0° |
| 2026-05-04 23:25 | 32.91029 | -97.04785 | 598 ft | 16 kts | 340° |
| 2026-05-04 23:25 | 32.91143 | -97.04794 | 598 ft | 16 kts | 0° |
| 2026-05-04 23:26 | 32.91259 | -97.04793 | 598 ft | 17 kts | 1° |
| 2026-05-04 23:26 | 32.91378 | -97.04792 | 598 ft | 18 kts | 0° |
| 2026-05-04 23:26 | 32.91485 | -97.04791 | 598 ft | 12 kts | 0° |
| 2026-05-04 23:26 | 32.91559 | -97.04817 | 598 ft | 12 kts | 303° |
| 2026-05-04 23:27 | 32.91566 | -97.04908 | 598 ft | 9 kts | 270° |
| 2026-05-04 23:27 | 32.91566 | -97.04934 | 598 ft | 0 kts | 270° |
| 2026-05-04 23:28 | 32.91566 | -97.04963 | 598 ft | 8 kts | 270° |
| 2026-05-04 23:28 | 32.91566 | -97.05037 | 598 ft | 9 kts | 265° |
| 2026-05-04 23:28 | 32.91520 | -97.05074 | 598 ft | 9 kts | 184° |
| 2026-05-04 23:28 | 32.91407 | -97.05075 | 598 ft | 37 kts | 180° |
| 2026-05-04 23:29 | 32.90925 | -97.05077 | 599 ft | 99 kts | 180° |
| 2026-05-04 23:29 | 32.90059 | -97.05082 | 599 ft | 147 kts | 180° |
| 2026-05-04 23:29 | 32.88953 | -97.05083 | 941 ft | 161 kts | 177° |
| 2026-05-04 23:29 | 32.87824 | -97.05044 | 1519 ft | 163 kts | 179° |
| 2026-05-04 23:30 | 32.86703 | -97.05039 | 2156 ft | 162 kts | 188° |
| 2026-05-04 23:30 | 32.85582 | -97.05413 | 2494 ft | 175 kts | 193° |
| 2026-05-04 23:30 | 32.84339 | -97.05827 | 2659 ft | 195 kts | 194° |
| 2026-05-04 23:30 | 32.82945 | -97.06272 | 2797 ft | 220 kts | 194° |
| 2026-05-04 23:31 | 32.81439 | -97.06770 | 3318 ft | 228 kts | 195° |
| 2026-05-04 23:31 | 32.79899 | -97.07290 | 3965 ft | 232 kts | 197° |
| 2026-05-04 23:31 | 32.78417 | -97.08044 | 4611 ft | 235 kts | 218° |
| 2026-05-04 23:31 | 32.77383 | -97.09547 | 5212 ft | 239 kts | 246° |
| 2026-05-04 23:32 | 32.76964 | -97.11472 | 5806 ft | 243 kts | 258° |
| 2026-05-04 23:32 | 32.76646 | -97.13457 | 6423 ft | 245 kts | 261° |
| 2026-05-04 23:32 | 32.76601 | -97.15509 | 6873 ft | 256 kts | 272° |
| 2026-05-04 23:32 | 32.76689 | -97.16919 | 7176 ft | 260 kts | 273° |
| 2026-05-04 23:33 | 32.76828 | -97.19069 | 7791 ft | 262 kts | 273° |
| 2026-05-04 23:33 | 32.76969 | -97.21238 | 8394 ft | 264 kts | 273° |
| 2026-05-04 23:33 | 32.77107 | -97.23422 | 9045 ft | 266 kts | 275° |
| 2026-05-04 23:33 | 32.77493 | -97.25581 | 9661 ft | 269 kts | 284° |
| 2026-05-04 23:34 | 32.78018 | -97.27721 | 10224 ft | 272 kts | 285° |
| 2026-05-04 23:34 | 32.78566 | -97.29965 | 10364 ft | 292 kts | 285° |
| 2026-05-04 23:34 | 32.79147 | -97.32357 | 10499 ft | 312 kts | 285° |
| 2026-05-04 23:34 | 32.79765 | -97.34910 | 10610 ft | 330 kts | 285° |
| 2026-05-04 23:35 | 32.80407 | -97.37574 | 10957 ft | 339 kts | 285° |
| 2026-05-04 23:35 | 32.81060 | -97.40284 | 11516 ft | 342 kts | 285° |
| 2026-05-04 23:35 | 32.81718 | -97.43015 | 12199 ft | 344 kts | 285° |
| 2026-05-04 23:35 | 32.82377 | -97.45759 | 12826 ft | 346 kts | 285° |
| 2026-05-04 23:36 | 32.83037 | -97.48519 | 13420 ft | 348 kts | 285° |
| 2026-05-04 23:36 | 32.83702 | -97.51298 | 14109 ft | 350 kts | 285° |
| 2026-05-04 23:36 | 32.84368 | -97.54086 | 14666 ft | 352 kts | 285° |
| 2026-05-04 23:36 | 32.85037 | -97.56889 | 15218 ft | 354 kts | 285° |
| 2026-05-04 23:37 | 32.85712 | -97.59713 | 15779 ft | 356 kts | 286° |
| 2026-05-04 23:37 | 32.86391 | -97.62557 | 16361 ft | 358 kts | 286° |
| 2026-05-04 23:37 | 32.87070 | -97.65412 | 16907 ft | 360 kts | 286° |
| 2026-05-04 23:37 | 32.87752 | -97.68283 | 17431 ft | 362 kts | 286° |
| 2026-05-04 23:38 | 32.88438 | -97.71173 | 17934 ft | 364 kts | 286° |
| 2026-05-04 23:38 | 32.89189 | -97.74060 | 18440 ft | 366 kts | 291° |
| 2026-05-04 23:38 | 32.90126 | -97.76884 | 18936 ft | 367 kts | 291° |
| 2026-05-04 23:38 | 32.91062 | -97.79711 | 19446 ft | 367 kts | 291° |
| 2026-05-04 23:39 | 32.91991 | -97.82534 | 19982 ft | 366 kts | 291° |
| 2026-05-04 23:39 | 32.92917 | -97.85357 | 20464 ft | 366 kts | 291° |
| 2026-05-04 23:39 | 32.93839 | -97.88176 | 20923 ft | 365 kts | 291° |
| 2026-05-04 23:39 | 32.94760 | -97.90998 | 21351 ft | 366 kts | 291° |
| 2026-05-04 23:40 | 32.95681 | -97.93821 | 21768 ft | 366 kts | 291° |
| 2026-05-04 23:40 | 32.96603 | -97.96646 | 22065 ft | 366 kts | 291° |
| 2026-05-04 23:40 | 32.97525 | -97.99475 | 22521 ft | 366 kts | 291° |
| 2026-05-04 23:40 | 32.98444 | -98.02303 | 22957 ft | 366 kts | 291° |
| 2026-05-04 23:41 | 32.99365 | -98.05133 | 23356 ft | 366 kts | 291° |
| 2026-05-04 23:41 | 33.00287 | -98.07966 | 23700 ft | 367 kts | 291° |
| 2026-05-04 23:41 | 33.01212 | -98.10807 | 24018 ft | 368 kts | 291° |
| 2026-05-04 23:41 | 33.02140 | -98.13656 | 24330 ft | 370 kts | 291° |
| 2026-05-04 23:42 | 33.03071 | -98.16519 | 24640 ft | 371 kts | 291° |
| 2026-05-04 23:42 | 33.04001 | -98.19392 | 24944 ft | 372 kts | 291° |
| 2026-05-04 23:42 | 33.04934 | -98.22277 | 25223 ft | 374 kts | 291° |
| 2026-05-04 23:42 | 33.05872 | -98.25173 | 25529 ft | 375 kts | 291° |
| 2026-05-04 23:43 | 33.06818 | -98.28082 | 25816 ft | 377 kts | 291° |
| 2026-05-04 23:43 | 33.07769 | -98.30997 | 26105 ft | 378 kts | 291° |
| 2026-05-04 23:43 | 33.08727 | -98.33928 | 26385 ft | 380 kts | 291° |
| 2026-05-04 23:43 | 33.09685 | -98.36869 | 26673 ft | 381 kts | 291° |
| 2026-05-04 23:44 | 33.10644 | -98.39820 | 26969 ft | 382 kts | 291° |
| 2026-05-04 23:44 | 33.11603 | -98.42778 | 27260 ft | 383 kts | 291° |
| 2026-05-04 23:44 | 33.12566 | -98.45745 | 27584 ft | 385 kts | 290° |
| 2026-05-04 23:44 | 33.13531 | -98.48728 | 27737 ft | 384 kts | 290° |
| 2026-05-04 23:45 | 33.14480 | -98.51663 | 27770 ft | 374 kts | 290° |
| 2026-05-04 23:45 | 33.15410 | -98.54544 | 27766 ft | 371 kts | 290° |
| 2026-05-04 23:45 | 33.16335 | -98.57412 | 27768 ft | 369 kts | 290° |
| 2026-05-04 23:45 | 33.17247 | -98.60238 | 27766 ft | 369 kts | 290° |
| 2026-05-04 23:46 | 33.18169 | -98.63094 | 27763 ft | 369 kts | 290° |
| 2026-05-04 23:46 | 33.19087 | -98.65952 | 27758 ft | 369 kts | 290° |
| 2026-05-04 23:46 | 33.20005 | -98.68818 | 27755 ft | 369 kts | 290° |
| 2026-05-04 23:46 | 33.20921 | -98.71678 | 27754 ft | 369 kts | 290° |
| 2026-05-04 23:47 | 33.21839 | -98.74540 | 27734 ft | 368 kts | 290° |
| 2026-05-04 23:47 | 33.22757 | -98.77399 | 27728 ft | 368 kts | 290° |
| 2026-05-04 23:47 | 33.23672 | -98.80254 | 27718 ft | 368 kts | 290° |
| 2026-05-04 23:47 | 33.24589 | -98.83109 | 27714 ft | 368 kts | 290° |
| 2026-05-04 23:48 | 33.25504 | -98.85954 | 27709 ft | 368 kts | 290° |
| 2026-05-04 23:48 | 33.26418 | -98.88806 | 27699 ft | 367 kts | 290° |
| 2026-05-04 23:48 | 33.27329 | -98.91661 | 27695 ft | 367 kts | 290° |
| 2026-05-04 23:48 | 33.28235 | -98.94513 | 27688 ft | 367 kts | 290° |
| 2026-05-04 23:49 | 33.29140 | -98.97366 | 27689 ft | 367 kts | 290° |
| 2026-05-04 23:49 | 33.30048 | -99.00221 | 27688 ft | 367 kts | 290° |
| 2026-05-04 23:49 | 33.30957 | -99.03073 | 27689 ft | 367 kts | 290° |
| 2026-05-04 23:49 | 33.31865 | -99.05925 | 27682 ft | 367 kts | 290° |
| 2026-05-04 23:50 | 33.32771 | -99.08779 | 27681 ft | 367 kts | 290° |
| 2026-05-04 23:50 | 33.33678 | -99.11635 | 27678 ft | 368 kts | 290° |
| 2026-05-04 23:50 | 33.34584 | -99.14493 | 27696 ft | 368 kts | 290° |
| 2026-05-04 23:50 | 33.35489 | -99.17352 | 27700 ft | 368 kts | 290° |
| 2026-05-04 23:51 | 33.36394 | -99.20214 | 27696 ft | 368 kts | 290° |
| 2026-05-04 23:51 | 33.37296 | -99.23072 | 27695 ft | 367 kts | 290° |
| 2026-05-04 23:51 | 33.38200 | -99.25932 | 27687 ft | 367 kts | 290° |
| 2026-05-04 23:51 | 33.39103 | -99.28792 | 27685 ft | 367 kts | 290° |
| 2026-05-04 23:52 | 33.40005 | -99.31653 | 27680 ft | 367 kts | 290° |
| 2026-05-04 23:52 | 33.40906 | -99.34510 | 27679 ft | 367 kts | 290° |
| 2026-05-04 23:52 | 33.41804 | -99.37372 | 27678 ft | 367 kts | 290° |
| 2026-05-04 23:52 | 33.42700 | -99.40231 | 27674 ft | 367 kts | 290° |
| 2026-05-04 23:53 | 33.43596 | -99.43088 | 27674 ft | 367 kts | 290° |
| 2026-05-04 23:53 | 33.44490 | -99.45948 | 27666 ft | 367 kts | 290° |
| 2026-05-04 23:53 | 33.45384 | -99.48809 | 27655 ft | 368 kts | 289° |
| 2026-05-04 23:53 | 33.46280 | -99.51678 | 27653 ft | 368 kts | 289° |
| 2026-05-04 23:54 | 33.47459 | -99.55656 | 27659 ft | 369 kts | 288° |
| 2026-05-04 23:54 | 33.50665 | -99.67352 | 27667 ft | 370 kts | 287° |
| 2026-05-04 23:54 | 33.53903 | -99.79050 | 27663 ft | 370 kts | 288° |
| 2026-05-04 23:54 | 33.57151 | -99.90764 | 27672 ft | 370 kts | 287° |
| 2026-05-04 23:55 | 33.60377 | -100.02496 | 27658 ft | 370 kts | 287° |
| 2026-05-04 23:55 | 33.63601 | -100.14235 | 27658 ft | 370 kts | 287° |
| 2026-05-04 23:55 | 33.70822 | -100.37393 | 27654 ft | 371 kts | 290° |
| 2026-05-04 23:56 | 33.74652 | -100.48902 | 27661 ft | 371 kts | 290° |
| 2026-05-04 23:56 | 33.78453 | -100.60432 | 27661 ft | 371 kts | 290° |
| 2026-05-04 23:56 | 33.82241 | -100.71957 | 27653 ft | 370 kts | 290° |
| 2026-05-04 23:56 | 33.86029 | -100.83478 | 27644 ft | 370 kts | 290° |
| 2026-05-04 23:57 | 33.89786 | -100.94981 | 27648 ft | 370 kts | 290° |
| 2026-05-04 23:57 | 33.93549 | -101.06534 | 27650 ft | 370 kts | 290° |
| 2026-05-04 23:57 | 33.97291 | -101.18059 | 27690 ft | 370 kts | 290° |
| 2026-05-04 23:57 | 34.01023 | -101.29623 | 27675 ft | 370 kts | 289° |
| 2026-05-04 23:58 | 34.04729 | -101.41179 | 27692 ft | 369 kts | 289° |
| 2026-05-04 23:58 | 34.08426 | -101.52727 | 27738 ft | 369 kts | 289° |
| 2026-05-04 23:58 | 34.12126 | -101.64303 | 27785 ft | 370 kts | 289° |
| 2026-05-04 23:58 | 34.15816 | -101.75904 | 27771 ft | 371 kts | 289° |
| 2026-05-04 23:59 | 34.19504 | -101.87535 | 27767 ft | 372 kts | 289° |
| 2026-05-04 23:59 | 34.23208 | -101.99221 | 27724 ft | 373 kts | 289° |
| 2026-05-04 23:59 | 34.26888 | -102.10954 | 27667 ft | 374 kts | 288° |
| 2026-05-04 23:59 | 34.30564 | -102.22728 | 27679 ft | 375 kts | 288° |
| 2026-05-05 00:00 | 34.34261 | -102.34527 | 27695 ft | 375 kts | 288° |
| 2026-05-05 00:00 | 34.35501 | -102.38512 | 27696 ft | 375 kts | 288° |
| 2026-05-05 00:00 | 34.41551 | -102.58076 | 27728 ft | 372 kts | 288° |
| 2026-05-05 00:00 | 34.45158 | -102.69785 | 27748 ft | 370 kts | 288° |
| 2026-05-05 00:01 | 34.48747 | -102.81484 | 27710 ft | 370 kts | 288° |
| 2026-05-05 00:01 | 34.50997 | -102.93603 | 27744 ft | 371 kts | 280° |
| 2026-05-05 00:01 | 34.52898 | -103.05922 | 27765 ft | 372 kts | 280° |
| 2026-05-05 00:01 | 34.54742 | -103.17957 | 27769 ft | 372 kts | 279° |
| 2026-05-05 00:02 | 34.56609 | -103.30273 | 27725 ft | 371 kts | 279° |
| 2026-05-05 00:02 | 34.58460 | -103.42570 | 27678 ft | 370 kts | 279° |
| 2026-05-05 00:02 | 34.60300 | -103.54863 | 27660 ft | 370 kts | 279° |
| 2026-05-05 00:02 | 34.61946 | -103.65951 | 27652 ft | 370 kts | 279° |
| 2026-05-05 00:03 | 34.63755 | -103.78250 | 27655 ft | 370 kts | 279° |
| 2026-05-05 00:03 | 34.65542 | -103.90427 | 27643 ft | 370 kts | 278° |
| 2026-05-05 00:03 | 34.67300 | -104.02481 | 27644 ft | 370 kts | 278° |
| 2026-05-05 00:03 | 34.68986 | -104.14192 | 27662 ft | 371 kts | 278° |
| 2026-05-05 00:04 | 34.70615 | -104.25555 | 27630 ft | 372 kts | 278° |
| 2026-05-05 00:04 | 34.72390 | -104.37977 | 27688 ft | 373 kts | 278° |
| 2026-05-05 00:04 | 34.74141 | -104.50418 | 27765 ft | 374 kts | 278° |
| 2026-05-05 00:04 | 34.75891 | -104.62865 | 27806 ft | 374 kts | 278° |
| 2026-05-05 00:05 | 34.77633 | -104.75326 | 27808 ft | 373 kts | 278° |
| 2026-05-05 00:05 | 34.79351 | -104.87778 | 27762 ft | 373 kts | 278° |
| 2026-05-05 00:05 | 34.81057 | -105.00218 | 27673 ft | 373 kts | 278° |
| 2026-05-05 00:05 | 34.82741 | -105.12704 | 27714 ft | 374 kts | 278° |
| 2026-05-05 00:06 | 34.84424 | -105.25209 | 27732 ft | 375 kts | 278° |
| 2026-05-05 00:06 | 34.86132 | -105.37919 | 27748 ft | 374 kts | 277° |
| 2026-05-05 00:06 | 34.87774 | -105.50267 | 27766 ft | 375 kts | 277° |
| 2026-05-05 00:06 | 34.89413 | -105.62814 | 27763 ft | 375 kts | 277° |
| 2026-05-05 00:07 | 34.91053 | -105.75328 | 27813 ft | 374 kts | 277° |
| 2026-05-05 00:07 | 34.92680 | -105.87844 | 27803 ft | 372 kts | 277° |
| 2026-05-05 00:07 | 34.94268 | -106.00285 | 27799 ft | 371 kts | 276° |
| 2026-05-05 00:07 | 34.95845 | -106.12699 | 27774 ft | 370 kts | 276° |
| 2026-05-05 00:08 | 34.97415 | -106.25095 | 27793 ft | 370 kts | 276° |
| 2026-05-05 00:08 | 34.98970 | -106.37478 | 27883 ft | 369 kts | 276° |
| 2026-05-05 00:08 | 35.00122 | -106.46726 | 27901 ft | 369 kts | 276° |
| 2026-05-05 00:08 | 35.00503 | -106.49817 | 27923 ft | 369 kts | 276° |
| 2026-05-05 00:09 | 35.00884 | -106.52916 | 27926 ft | 369 kts | 276° |
| 2026-05-05 00:09 | 35.01263 | -106.56007 | 27920 ft | 369 kts | 276° |
| 2026-05-05 00:09 | 35.01640 | -106.59095 | 27927 ft | 369 kts | 276° |
| 2026-05-05 00:09 | 35.02018 | -106.62190 | 27934 ft | 368 kts | 276° |
| 2026-05-05 00:10 | 35.02396 | -106.65285 | 27924 ft | 369 kts | 276° |
| 2026-05-05 00:10 | 35.02773 | -106.68377 | 27932 ft | 369 kts | 276° |
| 2026-05-05 00:10 | 35.03147 | -106.71432 | 27918 ft | 369 kts | 275° |
| 2026-05-05 00:10 | 35.03527 | -106.74572 | 27904 ft | 369 kts | 275° |
| 2026-05-05 00:11 | 35.03900 | -106.77676 | 27940 ft | 370 kts | 275° |
| 2026-05-05 00:11 | 35.04275 | -106.80777 | 27942 ft | 370 kts | 276° |
| 2026-05-05 00:11 | 35.04859 | -106.83854 | 27937 ft | 373 kts | 281° |
| 2026-05-05 00:11 | 35.05530 | -106.86913 | 27951 ft | 373 kts | 281° |
| 2026-05-05 00:12 | 35.06203 | -106.89973 | 27735 ft | 374 kts | 281° |
| 2026-05-05 00:12 | 35.06878 | -106.93041 | 27724 ft | 374 kts | 281° |
| 2026-05-05 00:12 | 35.07551 | -106.96110 | 27724 ft | 374 kts | 281° |
| 2026-05-05 00:12 | 35.07996 | -106.98139 | 27728 ft | 374 kts | 281° |
| 2026-05-05 00:13 | 35.08898 | -107.02255 | 27725 ft | 375 kts | 281° |
| 2026-05-05 00:13 | 35.09342 | -107.04291 | 27724 ft | 375 kts | 281° |
| 2026-05-05 00:13 | 35.10011 | -107.07367 | 27703 ft | 375 kts | 280° |
| 2026-05-05 00:13 | 35.10680 | -107.10454 | 27700 ft | 376 kts | 280° |
| 2026-05-05 00:14 | 35.11349 | -107.13546 | 27706 ft | 377 kts | 280° |
| 2026-05-05 00:14 | 35.12016 | -107.16645 | 27716 ft | 378 kts | 280° |
| 2026-05-05 00:14 | 35.12682 | -107.19749 | 27724 ft | 378 kts | 280° |
| 2026-05-05 00:14 | 35.13353 | -107.22858 | 27734 ft | 378 kts | 280° |
| 2026-05-05 00:15 | 35.14025 | -107.25966 | 27739 ft | 379 kts | 280° |
| 2026-05-05 00:15 | 35.14700 | -107.29081 | 27740 ft | 379 kts | 280° |
| 2026-05-05 00:15 | 35.15373 | -107.32191 | 27741 ft | 379 kts | 280° |
| 2026-05-05 00:15 | 35.16044 | -107.35309 | 27753 ft | 379 kts | 280° |
| 2026-05-05 00:16 | 35.16714 | -107.38429 | 27750 ft | 379 kts | 280° |
| 2026-05-05 00:16 | 35.17381 | -107.41548 | 27745 ft | 379 kts | 280° |
| 2026-05-05 00:16 | 35.18046 | -107.44664 | 27755 ft | 379 kts | 280° |
| 2026-05-05 00:16 | 35.18895 | -107.48635 | 27756 ft | 379 kts | 280° |
| 2026-05-05 00:17 | 35.21560 | -107.61106 | 27771 ft | 380 kts | 280° |
| 2026-05-05 00:17 | 35.24211 | -107.73643 | 27792 ft | 381 kts | 280° |
| 2026-05-05 00:17 | 35.26855 | -107.86193 | 28048 ft | 381 kts | 280° |
| 2026-05-05 00:18 | 35.32124 | -108.11419 | 27903 ft | 382 kts | 279° |
| 2026-05-05 00:18 | 35.34727 | -108.24048 | 27823 ft | 382 kts | 279° |
| 2026-05-05 00:18 | 35.37324 | -108.36675 | 27776 ft | 382 kts | 279° |
| 2026-05-05 00:18 | 35.39925 | -108.49329 | 27750 ft | 383 kts | 279° |
| 2026-05-05 00:19 | 35.42503 | -108.61990 | 27734 ft | 383 kts | 279° |
| 2026-05-05 00:19 | 35.45067 | -108.74675 | 27726 ft | 383 kts | 279° |
| 2026-05-05 00:19 | 35.47529 | -108.87345 | 27988 ft | 379 kts | 272° |
| 2026-05-05 00:19 | 35.47633 | -109.00196 | 27914 ft | 378 kts | 267° |
| 2026-05-05 00:20 | 35.47722 | -109.13098 | 27915 ft | 380 kts | 266° |
| 2026-05-05 00:20 | 35.47750 | -109.26082 | 27872 ft | 380 kts | 266° |
| 2026-05-05 00:20 | 35.47784 | -109.39059 | 27811 ft | 381 kts | 266° |
| 2026-05-05 00:20 | 35.47806 | -109.52075 | 27787 ft | 381 kts | 266° |
| 2026-05-05 00:21 | 35.47792 | -109.65048 | 27787 ft | 380 kts | 266° |
| 2026-05-05 00:21 | 35.47773 | -109.78025 | 27780 ft | 380 kts | 266° |
| 2026-05-05 00:21 | 35.47748 | -109.90990 | 27794 ft | 380 kts | 266° |
| 2026-05-05 00:21 | 35.47702 | -110.03937 | 27780 ft | 380 kts | 266° |
| 2026-05-05 00:22 | 35.47651 | -110.16897 | 27796 ft | 380 kts | 265° |
| 2026-05-05 00:22 | 35.47577 | -110.29844 | 27803 ft | 380 kts | 265° |
| 2026-05-05 00:22 | 35.47484 | -110.42802 | 27812 ft | 380 kts | 265° |
| 2026-05-05 00:22 | 35.47378 | -110.55748 | 27820 ft | 379 kts | 265° |
| 2026-05-05 00:23 | 35.47265 | -110.68667 | 27821 ft | 379 kts | 265° |
| 2026-05-05 00:23 | 35.47149 | -110.81601 | 27821 ft | 379 kts | 264° |
| 2026-05-05 00:23 | 35.47005 | -110.94555 | 27807 ft | 380 kts | 264° |
| 2026-05-05 00:23 | 35.46842 | -111.07500 | 27800 ft | 380 kts | 264° |
| 2026-05-05 00:24 | 35.46680 | -111.20498 | 27807 ft | 382 kts | 264° |
| 2026-05-05 00:24 | 35.46492 | -111.33693 | 27853 ft | 389 kts | 264° |
| 2026-05-05 00:24 | 35.46296 | -111.46979 | 27853 ft | 389 kts | 264° |
| 2026-05-05 00:24 | 35.46231 | -111.51162 | 27847 ft | 387 kts | 264° |
| 2026-05-05 00:25 | 35.46176 | -111.54462 | 27860 ft | 387 kts | 264° |
| 2026-05-05 00:25 | 35.46117 | -111.57760 | 27863 ft | 386 kts | 264° |
| 2026-05-05 00:25 | 35.46056 | -111.61049 | 27860 ft | 386 kts | 264° |
| 2026-05-05 00:25 | 35.45996 | -111.64339 | 27855 ft | 386 kts | 264° |
| 2026-05-05 00:26 | 35.45937 | -111.67623 | 27855 ft | 385 kts | 264° |
| 2026-05-05 00:26 | 35.45879 | -111.70907 | 27855 ft | 385 kts | 264° |
| 2026-05-05 00:26 | 35.45823 | -111.74146 | 27880 ft | 384 kts | 264° |
| 2026-05-05 00:26 | 35.45765 | -111.77448 | 27856 ft | 381 kts | 264° |
| 2026-05-05 00:27 | 35.45707 | -111.80695 | 27877 ft | 380 kts | 263° |
| 2026-05-05 00:27 | 35.45645 | -111.83926 | 27894 ft | 380 kts | 263° |
| 2026-05-05 00:27 | 35.45727 | -111.87186 | 27902 ft | 384 kts | 271° |
| 2026-05-05 00:27 | 35.46125 | -111.90391 | 27919 ft | 386 kts | 272° |
| 2026-05-05 00:28 | 35.46544 | -111.93648 | 27939 ft | 386 kts | 272° |
| 2026-05-05 00:28 | 35.46962 | -111.96907 | 27943 ft | 386 kts | 272° |
| 2026-05-05 00:28 | 35.47373 | -112.00159 | 27956 ft | 386 kts | 272° |
| 2026-05-05 00:28 | 35.47780 | -112.03422 | 27964 ft | 386 kts | 272° |
| 2026-05-05 00:29 | 35.48183 | -112.06681 | 27975 ft | 386 kts | 272° |
| 2026-05-05 00:29 | 35.48589 | -112.09942 | 27977 ft | 387 kts | 272° |
| 2026-05-05 00:29 | 35.48998 | -112.13205 | 28012 ft | 387 kts | 272° |
| 2026-05-05 00:30 | 35.49813 | -112.19722 | 28013 ft | 386 kts | 272° |
| 2026-05-05 00:30 | 35.50617 | -112.26211 | 27994 ft | 384 kts | 272° |
| 2026-05-05 00:30 | 35.51017 | -112.29452 | 27987 ft | 384 kts | 272° |
| 2026-05-05 00:31 | 35.51414 | -112.32686 | 27971 ft | 383 kts | 271° |
| 2026-05-05 00:31 | 35.51810 | -112.35921 | 27954 ft | 383 kts | 272° |
| 2026-05-05 00:31 | 35.52209 | -112.39157 | 27939 ft | 383 kts | 272° |
| 2026-05-05 00:31 | 35.52602 | -112.42346 | 27922 ft | 383 kts | 272° |
| 2026-05-05 00:32 | 35.53002 | -112.45615 | 27906 ft | 383 kts | 271° |
| 2026-05-05 00:32 | 35.53395 | -112.48847 | 27906 ft | 382 kts | 271° |
| 2026-05-05 00:32 | 35.53787 | -112.52075 | 27881 ft | 382 kts | 271° |
| 2026-05-05 00:32 | 35.54175 | -112.55300 | 27902 ft | 382 kts | 271° |
| 2026-05-05 00:33 | 35.54557 | -112.58485 | 27897 ft | 381 kts | 271° |
| 2026-05-05 00:33 | 35.54946 | -112.61707 | 27890 ft | 381 kts | 271° |
| 2026-05-05 00:33 | 35.55334 | -112.64916 | 27885 ft | 380 kts | 271° |
| 2026-05-05 00:33 | 35.55721 | -112.68126 | 27882 ft | 380 kts | 271° |
| 2026-05-05 00:34 | 35.56106 | -112.71333 | 27876 ft | 379 kts | 271° |
| 2026-05-05 00:34 | 35.56489 | -112.74540 | 27868 ft | 379 kts | 271° |
| 2026-05-05 00:34 | 35.56870 | -112.77745 | 27864 ft | 379 kts | 271° |
| 2026-05-05 00:34 | 35.57250 | -112.80955 | 27870 ft | 379 kts | 270° |
| 2026-05-05 00:35 | 35.57626 | -112.84161 | 27863 ft | 379 kts | 270° |
| 2026-05-05 00:35 | 35.58005 | -112.87389 | 27856 ft | 380 kts | 270° |
| 2026-05-05 00:35 | 35.58386 | -112.90596 | 27856 ft | 380 kts | 270° |
| 2026-05-05 00:35 | 35.58768 | -112.93811 | 27854 ft | 380 kts | 270° |
| 2026-05-05 00:36 | 35.59148 | -112.97030 | 27856 ft | 380 kts | 270° |
| 2026-05-05 00:36 | 35.59526 | -113.00246 | 27859 ft | 380 kts | 270° |
| 2026-05-05 00:36 | 35.59904 | -113.03465 | 27858 ft | 380 kts | 270° |
| 2026-05-05 00:36 | 35.60278 | -113.06678 | 27854 ft | 380 kts | 270° |
| 2026-05-05 00:37 | 35.60650 | -113.09897 | 27852 ft | 380 kts | 270° |
| 2026-05-05 00:37 | 35.61023 | -113.13105 | 27841 ft | 377 kts | 270° |
| 2026-05-05 00:37 | 35.61395 | -113.16282 | 27619 ft | 375 kts | 270° |
| 2026-05-05 00:37 | 35.61763 | -113.19446 | 27364 ft | 374 kts | 270° |
| 2026-05-05 00:38 | 35.62126 | -113.22604 | 27110 ft | 372 kts | 270° |
| 2026-05-05 00:38 | 35.62483 | -113.25706 | 26852 ft | 371 kts | 270° |
| 2026-05-05 00:38 | 35.62844 | -113.28842 | 26617 ft | 370 kts | 271° |
| 2026-05-05 00:38 | 35.63201 | -113.31974 | 26369 ft | 370 kts | 271° |
| 2026-05-05 00:39 | 35.63554 | -113.35083 | 26054 ft | 364 kts | 271° |
| 2026-05-05 00:39 | 35.63904 | -113.38143 | 25587 ft | 359 kts | 272° |
| 2026-05-05 00:39 | 35.64247 | -113.41154 | 25127 ft | 354 kts | 272° |
| 2026-05-05 00:39 | 35.64586 | -113.44130 | 24678 ft | 349 kts | 272° |
| 2026-05-05 00:40 | 35.64921 | -113.47078 | 24226 ft | 347 kts | 272° |
| 2026-05-05 00:40 | 35.65255 | -113.50006 | 23771 ft | 346 kts | 273° |
| 2026-05-05 00:40 | 35.65661 | -113.52937 | 23357 ft | 355 kts | 275° |
| 2026-05-05 00:40 | 35.66145 | -113.55966 | 22885 ft | 364 kts | 276° |
| 2026-05-05 00:41 | 35.66669 | -113.59024 | 22450 ft | 366 kts | 277° |
| 2026-05-05 00:41 | 35.67202 | -113.62082 | 22021 ft | 366 kts | 277° |
| 2026-05-05 00:41 | 35.67730 | -113.65131 | 21579 ft | 365 kts | 277° |
| 2026-05-05 00:41 | 35.68248 | -113.68180 | 21148 ft | 364 kts | 277° |
| 2026-05-05 00:42 | 35.68754 | -113.71222 | 20717 ft | 363 kts | 277° |
| 2026-05-05 00:42 | 35.69251 | -113.74260 | 20292 ft | 362 kts | 276° |
| 2026-05-05 00:42 | 35.69742 | -113.77299 | 19862 ft | 362 kts | 276° |
| 2026-05-05 00:42 | 35.70233 | -113.80335 | 19430 ft | 361 kts | 276° |
| 2026-05-05 00:43 | 35.70723 | -113.83363 | 19004 ft | 361 kts | 276° |
| 2026-05-05 00:43 | 35.71214 | -113.86389 | 18580 ft | 361 kts | 276° |
| 2026-05-05 00:43 | 35.71701 | -113.89409 | 18146 ft | 360 kts | 276° |
| 2026-05-05 00:43 | 35.72187 | -113.92429 | 17854 ft | 360 kts | 276° |
| 2026-05-05 00:44 | 35.72673 | -113.95446 | 17404 ft | 359 kts | 276° |
| 2026-05-05 00:44 | 35.73161 | -113.98456 | 16981 ft | 358 kts | 277° |
| 2026-05-05 00:44 | 35.73644 | -114.01455 | 16555 ft | 356 kts | 277° |
| 2026-05-05 00:44 | 35.74117 | -114.04399 | 16361 ft | 344 kts | 276° |
| 2026-05-05 00:45 | 35.74574 | -114.07231 | 16251 ft | 331 kts | 276° |
| 2026-05-05 00:45 | 35.75013 | -114.09953 | 16123 ft | 318 kts | 276° |
| 2026-05-05 00:45 | 35.75433 | -114.12573 | 15947 ft | 307 kts | 276° |
| 2026-05-05 00:45 | 35.75923 | -114.15115 | 15655 ft | 305 kts | 284° |
| 2026-05-05 00:46 | 35.76820 | -114.17498 | 15414 ft | 308 kts | 292° |
| 2026-05-05 00:46 | 35.77846 | -114.19816 | 15191 ft | 307 kts | 292° |
| 2026-05-05 00:46 | 35.78873 | -114.22129 | 15024 ft | 309 kts | 292° |
| 2026-05-05 00:46 | 35.79898 | -114.24442 | 14722 ft | 306 kts | 292° |
| 2026-05-05 00:47 | 35.80910 | -114.26734 | 14425 ft | 304 kts | 292° |
| 2026-05-05 00:47 | 35.81915 | -114.29019 | 14124 ft | 302 kts | 292° |
| 2026-05-05 00:47 | 35.82915 | -114.31293 | 13826 ft | 302 kts | 293° |
| 2026-05-05 00:47 | 35.83951 | -114.33548 | 13521 ft | 304 kts | 298° |
| 2026-05-05 00:48 | 35.85227 | -114.35628 | 13205 ft | 304 kts | 302° |
| 2026-05-05 00:48 | 35.86522 | -114.37690 | 12894 ft | 304 kts | 302° |
| 2026-05-05 00:48 | 35.87811 | -114.39745 | 12606 ft | 302 kts | 303° |
| 2026-05-05 00:48 | 35.89093 | -114.41792 | 12300 ft | 301 kts | 303° |
| 2026-05-05 00:49 | 35.90367 | -114.43832 | 12014 ft | 299 kts | 303° |
| 2026-05-05 00:49 | 35.91634 | -114.45861 | 11731 ft | 298 kts | 303° |
| 2026-05-05 00:49 | 35.92897 | -114.47890 | 11445 ft | 297 kts | 302° |
| 2026-05-05 00:49 | 35.94151 | -114.49906 | 11162 ft | 296 kts | 303° |
| 2026-05-05 00:50 | 35.95400 | -114.51915 | 10887 ft | 294 kts | 302° |
| 2026-05-05 00:50 | 35.96643 | -114.53918 | 10599 ft | 294 kts | 302° |
| 2026-05-05 00:50 | 35.97876 | -114.55918 | 10319 ft | 292 kts | 303° |
| 2026-05-05 00:50 | 35.99101 | -114.57913 | 10038 ft | 290 kts | 302° |
| 2026-05-05 00:51 | 36.00319 | -114.59902 | 9758 ft | 291 kts | 303° |
| 2026-05-05 00:51 | 36.01534 | -114.61884 | 9451 ft | 285 kts | 302° |
| 2026-05-05 00:51 | 36.02724 | -114.63815 | 9177 ft | 278 kts | 302° |
| 2026-05-05 00:51 | 36.03857 | -114.65684 | 8917 ft | 264 kts | 296° |
| 2026-05-05 00:52 | 36.04789 | -114.67580 | 8658 ft | 253 kts | 296° |
| 2026-05-05 00:52 | 36.05698 | -114.69432 | 8406 ft | 251 kts | 295° |
| 2026-05-05 00:52 | 36.06589 | -114.71245 | 8165 ft | 249 kts | 294° |
| 2026-05-05 00:52 | 36.07210 | -114.73190 | 7912 ft | 240 kts | 276° |
| 2026-05-05 00:53 | 36.07350 | -114.75214 | 7746 ft | 234 kts | 266° |
| 2026-05-05 00:53 | 36.07341 | -114.77192 | 7482 ft | 228 kts | 265° |
| 2026-05-05 00:53 | 36.07335 | -114.79154 | 7200 ft | 224 kts | 265° |
| 2026-05-05 00:53 | 36.07337 | -114.81041 | 6907 ft | 221 kts | 266° |
| 2026-05-05 00:54 | 36.07341 | -114.82936 | 6631 ft | 219 kts | 266° |
| 2026-05-05 00:54 | 36.07345 | -114.84833 | 6355 ft | 216 kts | 266° |
| 2026-05-05 00:54 | 36.07349 | -114.86641 | 6097 ft | 204 kts | 265° |
| 2026-05-05 00:54 | 36.07353 | -114.88331 | 5822 ft | 189 kts | 265° |
| 2026-05-05 00:55 | 36.07356 | -114.89893 | 5571 ft | 178 kts | 266° |
| 2026-05-05 00:55 | 36.07357 | -114.91370 | 5343 ft | 166 kts | 267° |
| 2026-05-05 00:55 | 36.07359 | -114.92764 | 5135 ft | 159 kts | 265° |
| 2026-05-05 00:55 | 36.07359 | -114.94122 | 4930 ft | 158 kts | 265° |
| 2026-05-05 00:56 | 36.07361 | -114.95467 | 4739 ft | 154 kts | 264° |
| 2026-05-05 00:56 | 36.07362 | -114.96350 | 4599 ft | 150 kts | 264° |
| 2026-05-05 00:56 | 36.07363 | -114.97630 | 4412 ft | 148 kts | 264° |
| 2026-05-05 00:56 | 36.07364 | -114.99305 | 4159 ft | 147 kts | 264° |
| 2026-05-05 00:57 | 36.07364 | -115.00160 | 4028 ft | 147 kts | 264° |
| 2026-05-05 00:57 | 36.07365 | -115.01417 | 3847 ft | 146 kts | 265° |
| 2026-05-05 00:57 | 36.07365 | -115.02672 | 3656 ft | 146 kts | 264° |
| 2026-05-05 00:57 | 36.07365 | -115.03933 | 3467 ft | 146 kts | 264° |
| 2026-05-05 00:58 | 36.07366 | -115.05186 | 3285 ft | 145 kts | 264° |
| 2026-05-05 00:58 | 36.07366 | -115.06433 | 3096 ft | 147 kts | 262° |
| 2026-05-05 00:58 | 36.07366 | -115.07707 | 2883 ft | 151 kts | 263° |
| 2026-05-05 00:58 | 36.07368 | -115.09000 | 2699 ft | 149 kts | 262° |
| 2026-05-05 00:59 | 36.07370 | -115.10263 | 2495 ft | 146 kts | 262° |
| 2026-05-05 00:59 | 36.07371 | -115.11514 | 2339 ft | 145 kts | 262° |
| 2026-05-05 00:59 | 36.07368 | -115.12738 | 2150 ft | 141 kts | 263° |
| 2026-05-05 00:59 | 36.07365 | -115.13824 | 2122 ft | 101 kts | 270° |
| 2026-05-05 01:00 | 36.07375 | -115.14319 | 2128 ft | 26 kts | 281° |
| 2026-05-05 01:00 | 36.07431 | -115.14503 | 2127 ft | 14 kts | 299° |
| 2026-05-05 01:00 | 36.07467 | -115.14582 | 2126 ft | 5 kts | 299° |
| 2026-05-05 01:00 | 36.07483 | -115.14615 | 2124 ft | 6 kts | 305° |
| 2026-05-05 01:01 | 36.07522 | -115.14650 | 2126 ft | 8 kts | 341° |
| 2026-05-05 01:01 | 36.07591 | -115.14655 | 2125 ft | 14 kts | 359° |
| 2026-05-05 01:01 | 36.07699 | -115.14655 | 2122 ft | 16 kts | 0° |
| 2026-05-05 01:01 | 36.07794 | -115.14703 | 2121 ft | 14 kts | 328° |
| 2026-05-05 01:02 | 36.07846 | -115.14634 | 2118 ft | 15 kts | 90° |
| 2026-05-05 01:02 | 36.07838 | -115.14505 | 2119 ft | 15 kts | 95° |
| 2026-05-05 01:02 | 36.07829 | -115.14374 | 2120 ft | 15 kts | 94° |
| 2026-05-05 01:02 | 36.07826 | -115.14238 | 2118 ft | 17 kts | 90° |
| 2026-05-05 01:03 | 36.07826 | -115.14083 | 2118 ft | 18 kts | 90° |
| 2026-05-05 01:03 | 36.07827 | -115.13944 | 2123 ft | 14 kts | 90° |
| 2026-05-05 01:03 | 36.07827 | -115.13815 | 2124 ft | 15 kts | 90° |
| 2026-05-05 01:03 | 36.07827 | -115.13678 | 2123 ft | 15 kts | 90° |
| 2026-05-05 01:04 | 36.07850 | -115.13589 | 2124 ft | 10 kts | 32° |
| 2026-05-05 01:04 | 36.07921 | -115.13626 | 2122 ft | 2 kts | 321° |
| 2026-05-05 01:04 | 36.07944 | -115.13625 | 2122 ft | 5 kts | 21° |
| 2026-05-05 01:05 | 36.07979 | -115.13592 | 2122 ft | 6 kts | 41° |
| 2026-05-05 01:05 | 36.07994 | -115.13576 | 2121 ft | 1 kts | 42° |
| 2026-05-05 01:05 | 36.07995 | -115.13575 | 2121 ft | 0 kts | 42° |